createdAt,value
2018-12-02T00:01:09.485Z,75.60
2018-12-02T00:03:37.227Z,75.50
2018-12-02T00:06:04.894Z,75.60
2018-12-02T00:08:34.624Z,75.70
2018-12-02T00:11:02.210Z,75.70
2018-12-02T00:13:29.845Z,75.70
2018-12-02T00:15:57.521Z,75.70
2018-12-02T00:18:25.118Z,75.60
2018-12-02T00:20:52.799Z,75.60
2018-12-02T00:23:21.108Z,75.70
2018-12-02T00:25:48.750Z,75.60
2018-12-02T00:28:16.373Z,75.60
2018-12-02T00:30:43.991Z,75.70
2018-12-02T00:33:11.699Z,75.70
2018-12-02T00:35:39.302Z,75.70
2018-12-02T00:38:07.610Z,76.50
2018-12-02T00:40:35.195Z,75.70
2018-12-02T00:43:02.941Z,75.80
2018-12-02T00:45:32.236Z,75.80
2018-12-02T00:48:00.643Z,75.80
2018-12-02T00:50:28.256Z,75.80
2018-12-02T00:52:56.502Z,75.80
2018-12-02T00:55:24.798Z,75.70
2018-12-02T00:57:52.705Z,75.70
2018-12-02T01:00:20.389Z,75.70
2018-12-02T01:02:48.566Z,75.70
2018-12-02T01:05:16.702Z,75.80
2018-12-02T01:07:44.487Z,75.80
2018-12-02T01:10:12.761Z,75.80
2018-12-02T01:12:40.399Z,75.70
2018-12-02T01:15:08.858Z,75.70
2018-12-02T01:17:36.549Z,75.70
2018-12-02T01:20:04.289Z,75.70
2018-12-02T01:22:31.897Z,75.70
2018-12-02T01:24:59.646Z,75.70
2018-12-02T01:27:27.260Z,75.70
2018-12-02T01:29:55.678Z,75.80
2018-12-02T01:32:23.271Z,75.80
2018-12-02T01:34:50.940Z,75.80
2018-12-02T01:37:18.659Z,75.80
2018-12-02T01:39:46.238Z,75.80
2018-12-02T01:42:13.951Z,75.80
2018-12-02T01:44:41.638Z,75.80
2018-12-02T01:47:09.281Z,75.80
2018-12-02T01:49:37.178Z,75.80
2018-12-02T01:52:05.936Z,75.80
2018-12-02T01:54:33.622Z,75.80
2018-12-02T01:57:01.368Z,75.80
2018-12-02T01:59:28.956Z,75.80
2018-12-02T02:01:57.238Z,75.90
2018-12-02T02:04:25.153Z,76.00
2018-12-02T02:06:52.752Z,76.20
2018-12-02T02:09:20.351Z,75.90
2018-12-02T02:11:48.107Z,76.00
2018-12-02T02:14:15.736Z,75.90
2018-12-02T02:16:43.369Z,75.90
2018-12-02T02:19:10.997Z,76.00
2018-12-02T02:21:38.603Z,76.00
2018-12-02T02:24:06.242Z,76.00
2018-12-02T02:29:13.771Z,76.00
2018-12-02T02:31:41.356Z,76.00
2018-12-02T02:34:08.889Z,76.00
2018-12-02T02:36:36.511Z,76.00
2018-12-02T02:39:05.350Z,76.00
2018-12-02T02:41:32.909Z,76.00
2018-12-02T02:44:00.519Z,76.00
2018-12-02T02:46:34.243Z,76.00
2018-12-02T02:49:02.129Z,76.10
2018-12-02T02:51:29.766Z,76.10
2018-12-02T02:53:57.279Z,76.00
2018-12-02T02:56:24.937Z,76.00
2018-12-02T02:58:52.688Z,76.10
2018-12-02T03:01:20.432Z,76.10
2018-12-02T03:03:48.342Z,76.00
2018-12-02T03:06:16.072Z,76.00
2018-12-02T03:08:43.690Z,76.00
2018-12-02T03:11:11.179Z,76.00
2018-12-02T03:13:38.673Z,76.20
2018-12-02T03:16:06.584Z,76.10
2018-12-02T03:18:34.332Z,76.10
2018-12-02T03:21:01.846Z,76.10
2018-12-02T03:23:29.487Z,76.20
2018-12-02T03:25:57.087Z,76.10
2018-12-02T03:28:24.570Z,76.10
2018-12-02T03:30:52.208Z,76.20
2018-12-02T03:33:19.715Z,76.20
2018-12-02T03:35:47.253Z,76.10
2018-12-02T03:38:14.762Z,76.10
2018-12-02T03:40:42.287Z,76.10
2018-12-02T03:43:10.913Z,76.20
2018-12-02T03:45:38.420Z,76.20
2018-12-02T03:48:05.907Z,76.10
2018-12-02T03:50:33.382Z,76.20
2018-12-02T03:53:00.861Z,76.20
2018-12-02T03:55:28.359Z,76.20
2018-12-02T03:57:55.858Z,76.30
2018-12-02T04:00:24.116Z,76.30
2018-12-02T04:02:51.915Z,76.90
2018-12-02T04:05:19.949Z,76.30
2018-12-02T04:07:47.488Z,76.30
2018-12-02T04:10:16.115Z,76.20
2018-12-02T04:12:43.849Z,76.90
2018-12-02T04:15:12.860Z,76.30
2018-12-02T04:17:40.432Z,76.30
2018-12-02T04:20:08.510Z,76.20
2018-12-02T04:22:36.096Z,76.30
2018-12-02T04:25:03.627Z,76.30
2018-12-02T04:27:31.108Z,76.40
2018-12-02T04:29:58.574Z,76.40
2018-12-02T04:32:26.059Z,76.30
2018-12-02T04:34:53.554Z,76.30
2018-12-02T04:37:21.059Z,76.40
2018-12-02T04:39:48.542Z,76.60
2018-12-02T04:42:16.066Z,76.30
2018-12-02T04:44:43.537Z,76.40
2018-12-02T04:47:11.058Z,76.40
2018-12-02T04:49:38.558Z,76.40
2018-12-02T04:52:06.054Z,76.40
2018-12-02T04:54:33.567Z,76.30
2018-12-02T04:57:01.068Z,76.30
2018-12-02T04:59:28.601Z,76.30
2018-12-02T05:01:56.086Z,77.10
2018-12-02T05:04:23.562Z,76.40
2018-12-02T05:06:51.115Z,76.50
2018-12-02T05:09:18.585Z,76.60
2018-12-02T05:11:46.050Z,76.30
2018-12-02T05:14:13.510Z,76.20
2018-12-02T05:16:40.981Z,76.20
2018-12-02T05:19:08.437Z,76.20
2018-12-02T05:21:35.971Z,77.00
2018-12-02T05:24:03.511Z,76.20
2018-12-02T05:26:30.984Z,76.30
2018-12-02T05:28:58.463Z,76.40
2018-12-02T05:31:25.934Z,76.30
2018-12-02T05:33:53.399Z,76.30
2018-12-02T05:36:20.879Z,76.20
2018-12-02T05:38:48.350Z,76.30
2018-12-02T05:41:15.838Z,76.30
2018-12-02T05:43:43.321Z,76.30
2018-12-02T05:46:10.776Z,76.20
2018-12-02T05:48:38.229Z,76.20
2018-12-02T05:51:05.689Z,76.20
2018-12-02T05:53:33.153Z,76.20
2018-12-02T05:56:00.625Z,76.20
2018-12-02T05:58:28.109Z,76.30
2018-12-02T06:00:55.573Z,76.30
2018-12-02T06:03:23.055Z,76.20
2018-12-02T06:05:50.509Z,76.20
2018-12-02T06:08:17.965Z,76.20
2018-12-02T06:10:45.418Z,76.30
2018-12-02T06:13:12.942Z,76.30
2018-12-02T06:15:40.407Z,77.00
2018-12-02T06:18:07.865Z,76.30
2018-12-02T06:20:35.326Z,76.40
2018-12-02T06:23:02.810Z,76.40
2018-12-02T06:25:30.265Z,76.40
2018-12-02T06:27:57.713Z,76.40
2018-12-02T06:30:25.689Z,76.40
2018-12-02T06:32:54.681Z,76.40
2018-12-02T06:35:22.146Z,76.40
2018-12-02T06:37:50.069Z,76.40
2018-12-02T06:40:19.100Z,76.40
2018-12-02T06:42:46.581Z,76.40
2018-12-02T06:45:14.127Z,76.40
2018-12-02T06:47:41.642Z,76.40
2018-12-02T06:50:10.862Z,76.40
2018-12-02T06:52:38.329Z,76.30
2018-12-02T06:55:06.975Z,76.40
2018-12-02T06:57:34.455Z,76.40
2018-12-02T07:00:21.209Z,76.40
2018-12-02T07:02:50.574Z,76.30
2018-12-02T07:05:19.413Z,76.40
2018-12-02T07:07:46.933Z,76.50
2018-12-02T07:10:14.381Z,76.40
2018-12-02T07:12:41.861Z,76.40
2018-12-02T07:15:09.322Z,76.30
2018-12-02T07:17:36.805Z,76.20
2018-12-02T07:20:04.730Z,76.20
2018-12-02T07:22:32.210Z,76.10
2018-12-02T07:24:59.679Z,76.10
2018-12-02T07:27:27.142Z,76.00
2018-12-02T07:29:54.606Z,75.90
2018-12-02T07:32:22.074Z,75.90
2018-12-02T07:34:49.550Z,75.90
2018-12-02T07:37:17.738Z,75.90
2018-12-02T07:39:49.378Z,75.90
2018-12-02T07:42:16.838Z,75.80
2018-12-02T07:44:44.313Z,75.80
2018-12-02T07:47:11.791Z,75.80
2018-12-02T07:49:39.254Z,75.80
2018-12-02T07:52:06.721Z,75.70
2018-12-02T07:54:34.193Z,75.70
2018-12-02T07:57:01.671Z,75.70
2018-12-02T07:59:29.137Z,75.70
2018-12-02T08:01:56.597Z,75.70
2018-12-02T08:04:24.069Z,75.80
2018-12-02T08:06:51.611Z,75.80
2018-12-02T08:09:19.081Z,75.80
2018-12-02T08:11:46.540Z,75.80
2018-12-02T08:14:13.981Z,75.80
2018-12-02T08:16:41.434Z,75.80
2018-12-02T08:19:08.886Z,75.80
2018-12-02T08:21:36.334Z,75.80
2018-12-02T08:24:03.878Z,75.80
2018-12-02T08:26:31.334Z,75.80
2018-12-02T08:29:01.986Z,75.70
2018-12-02T08:31:29.447Z,75.80
2018-12-02T08:33:56.946Z,76.50
2018-12-02T08:36:24.378Z,75.80
2018-12-02T08:38:51.924Z,75.90
2018-12-02T08:41:23.790Z,75.90
2018-12-02T08:43:51.378Z,76.40
2018-12-02T08:46:18.825Z,75.90
2018-12-02T08:48:46.299Z,75.90
2018-12-02T08:51:13.761Z,75.90
2018-12-02T08:53:41.255Z,76.00
2018-12-02T08:56:08.719Z,76.00
2018-12-02T08:58:36.195Z,76.00
2018-12-02T09:01:03.647Z,76.00
2018-12-02T09:03:31.162Z,75.90
2018-12-02T09:05:58.702Z,75.90
2018-12-02T09:08:26.181Z,75.80
2018-12-02T09:10:53.656Z,75.80
2018-12-02T09:13:21.145Z,75.80
2018-12-02T09:15:48.614Z,75.80
2018-12-02T09:18:16.070Z,75.80
2018-12-02T09:20:49.217Z,75.80
2018-12-02T09:23:16.678Z,75.80
2018-12-02T09:25:44.149Z,75.80
2018-12-02T09:28:11.609Z,75.80
2018-12-02T09:30:39.077Z,75.10
2018-12-02T09:33:09.213Z,75.80
2018-12-02T09:35:36.683Z,75.80
2018-12-02T09:38:04.241Z,75.80
2018-12-02T09:40:31.770Z,75.70
2018-12-02T09:42:59.322Z,75.70
2018-12-02T09:45:27.317Z,75.70
2018-12-02T09:47:55.566Z,76.40
2018-12-02T09:50:23.041Z,75.70
2018-12-02T09:52:50.505Z,75.80
2018-12-02T09:55:18.783Z,75.60
2018-12-02T09:57:46.253Z,75.70
2018-12-02T10:00:25.888Z,75.60
2018-12-02T10:02:53.337Z,75.60
2018-12-02T10:05:20.912Z,75.60
2018-12-02T10:07:50.425Z,75.50
2018-12-02T10:10:28.713Z,75.20
2018-12-02T10:13:04.577Z,75.10
2018-12-02T10:15:33.408Z,75.10
2018-12-02T10:18:02.959Z,75.00
2018-12-02T10:20:30.557Z,74.90
2018-12-02T10:22:58.287Z,74.90
2018-12-02T10:25:25.899Z,74.80
2018-12-02T10:27:53.559Z,74.60
2018-12-02T10:30:22.403Z,74.70
2018-12-02T10:32:50.124Z,74.80
2018-12-02T10:35:17.593Z,74.80
2018-12-02T10:37:45.054Z,74.70
2018-12-02T10:40:14.270Z,74.80
2018-12-02T10:42:41.746Z,74.80
2018-12-02T10:45:10.109Z,74.80
2018-12-02T10:47:37.582Z,74.80
2018-12-02T10:50:08.171Z,74.80
2018-12-02T10:52:35.664Z,74.70
2018-12-02T10:55:03.166Z,74.60
2018-12-02T10:57:30.719Z,74.70
2018-12-02T11:00:02.768Z,74.60
2018-12-02T11:02:41.423Z,74.70
2018-12-02T11:05:09.618Z,74.60
2018-12-02T11:07:39.493Z,75.10
2018-12-02T11:10:11.793Z,74.70
2018-12-02T11:12:39.662Z,74.80
2018-12-02T11:15:10.489Z,74.70
2018-12-02T11:17:38.518Z,74.80
2018-12-02T11:20:07.676Z,74.70
2018-12-02T11:22:35.986Z,74.70
2018-12-02T11:25:03.701Z,74.70
2018-12-02T11:27:31.551Z,74.80
2018-12-02T11:29:59.336Z,74.80
2018-12-02T11:32:27.300Z,74.80
2018-12-02T11:34:55.682Z,75.50
2018-12-02T11:37:23.651Z,74.80
2018-12-02T11:39:51.571Z,74.60
2018-12-02T11:42:19.463Z,74.70
2018-12-02T11:44:47.441Z,74.70
2018-12-02T11:47:15.314Z,74.60
2018-12-02T11:49:43.235Z,74.70
2018-12-02T11:52:11.230Z,74.60
2018-12-02T11:54:40.066Z,74.60
2018-12-02T11:57:07.874Z,74.60
2018-12-02T11:59:36.353Z,74.40
2018-12-02T12:02:07.677Z,74.40
2018-12-02T12:04:32.987Z,74.40
2018-12-02T12:07:01.010Z,74.50
2018-12-02T12:09:28.855Z,74.50
2018-12-02T12:11:58.607Z,74.50
2018-12-02T12:14:26.354Z,74.30
2018-12-02T12:16:54.137Z,74.30
2018-12-02T12:19:21.778Z,75.00
2018-12-02T12:21:49.898Z,74.40
2018-12-02T12:24:17.510Z,74.50
2018-12-02T12:26:45.171Z,74.60
2018-12-02T12:29:12.944Z,74.50
2018-12-02T12:31:40.970Z,74.60
2018-12-02T12:34:08.569Z,74.70
2018-12-02T12:36:36.293Z,74.80
2018-12-02T12:39:06.591Z,74.80
2018-12-02T12:41:34.562Z,74.90
2018-12-02T12:44:03.708Z,74.90
2018-12-02T12:46:31.349Z,75.00
2018-12-02T12:48:59.090Z,75.00
2018-12-02T12:51:26.809Z,75.00
2018-12-02T12:53:54.618Z,75.00
2018-12-02T12:56:22.447Z,75.00
2018-12-02T12:59:07.934Z,74.90
2018-12-02T13:01:37.044Z,75.00
2018-12-02T13:04:22.214Z,75.10
2018-12-02T13:06:50.426Z,75.10
2018-12-02T13:09:23.108Z,75.10
2018-12-02T13:11:53.925Z,75.10
2018-12-02T13:14:25.326Z,75.00
2018-12-02T13:16:56.392Z,74.90
2018-12-02T13:19:25.597Z,74.80
2018-12-02T13:21:53.136Z,74.70
2018-12-02T13:24:23.278Z,74.80
2018-12-02T13:26:55.878Z,74.80
2018-12-02T13:29:29.107Z,74.70
2018-12-02T13:32:15.503Z,74.70
2018-12-02T13:34:47.664Z,74.80
2018-12-02T13:37:15.439Z,74.80
2018-12-02T13:39:45.335Z,74.80
2018-12-02T13:42:22.543Z,74.80
2018-12-02T13:44:59.951Z,74.80
2018-12-02T13:47:30.162Z,75.10
2018-12-02T13:52:39.842Z,75.30
2018-12-02T13:55:09.360Z,75.30
2018-12-02T13:57:42.547Z,75.50
2018-12-02T14:00:18.985Z,75.70
2018-12-02T14:02:49.260Z,75.80
2018-12-02T14:08:11.121Z,75.90
2018-12-02T14:10:39.866Z,76.10
2018-12-02T14:13:12.154Z,76.10
2018-12-02T14:15:49.756Z,76.40
2018-12-02T14:18:20.456Z,76.70
2018-12-02T14:20:50.858Z,76.70
2018-12-02T14:23:21.148Z,76.80
2018-12-02T14:25:51.183Z,77.00
2018-12-02T14:28:24.923Z,77.10
2018-12-02T14:30:54.159Z,77.00
2018-12-02T14:33:24.718Z,77.20
2018-12-02T14:35:53.497Z,77.30
2018-12-02T14:38:21.595Z,77.30
2018-12-02T14:40:49.673Z,77.20
2018-12-02T14:43:19.160Z,77.30
2018-12-02T14:45:49.045Z,77.30
2018-12-02T14:48:18.022Z,78.20
2018-12-02T14:50:45.991Z,79.60
2018-12-02T14:53:14.476Z,79.20
2018-12-02T14:55:42.452Z,79.10
2018-12-02T14:58:11.212Z,79.00
2018-12-02T15:00:38.951Z,79.00
2018-12-02T15:03:06.974Z,79.00
2018-12-02T15:05:35.574Z,79.10
2018-12-02T15:08:04.920Z,79.30
2018-12-02T15:10:34.656Z,79.40
2018-12-02T15:13:06.214Z,79.20
2018-12-02T15:15:35.043Z,79.30
2018-12-02T15:18:04.232Z,79.40
2018-12-02T15:20:35.829Z,79.40
2018-12-02T15:23:14.839Z,79.20
2018-12-02T15:25:46.228Z,79.30
2018-12-02T15:28:14.922Z,79.30
2018-12-02T15:30:47.738Z,79.40
2018-12-02T15:33:16.067Z,79.40
2018-12-02T15:35:44.694Z,79.40
2018-12-02T15:38:13.102Z,79.20
2018-12-02T15:40:40.902Z,79.40
2018-12-02T15:43:08.754Z,79.30
2018-12-02T15:45:36.937Z,79.30
2018-12-02T15:48:05.770Z,79.40
2018-12-02T15:50:43.306Z,79.30
2018-12-02T15:53:12.318Z,79.30
2018-12-02T15:55:40.382Z,79.20
2018-12-02T15:58:12.060Z,79.20
2018-12-02T16:00:43.055Z,79.30
2018-12-02T16:03:11.744Z,79.30
2018-12-02T16:05:39.638Z,79.20
2018-12-02T16:08:07.949Z,79.40
2018-12-02T16:10:35.830Z,79.40
2018-12-02T16:13:03.861Z,79.30
2018-12-02T16:15:33.057Z,79.40
2018-12-02T16:18:00.896Z,79.20
2018-12-02T16:20:31.458Z,79.00
2018-12-02T16:22:59.360Z,79.00
2018-12-02T16:25:29.102Z,78.90
2018-12-02T16:28:05.241Z,78.70
2018-12-02T16:30:40.278Z,78.70
2018-12-02T16:33:09.790Z,78.60
2018-12-02T16:35:40.534Z,78.60
2018-12-02T16:38:15.069Z,78.50
2018-12-02T16:40:44.009Z,78.50
2018-12-02T16:43:13.090Z,78.50
2018-12-02T16:46:11.898Z,78.40
2018-12-02T16:48:50.846Z,78.50
2018-12-02T16:51:21.526Z,78.50
2018-12-02T16:57:14.641Z,79.30
2018-12-02T16:59:42.730Z,78.50
2018-12-02T17:02:10.590Z,78.70
2018-12-02T17:04:41.824Z,78.70
2018-12-02T17:07:15.832Z,78.60
2018-12-02T17:09:48.473Z,78.60
2018-12-02T17:12:25.108Z,78.50
2018-12-02T17:14:52.917Z,78.40
2018-12-02T17:17:20.713Z,78.40
2018-12-02T17:19:51.742Z,78.40
2018-12-02T17:22:32.041Z,78.50
2018-12-02T17:33:44.080Z,78.30
2018-12-02T17:36:11.707Z,78.20
2018-12-02T17:38:40.248Z,78.20
2018-12-02T17:41:09.751Z,78.40
2018-12-02T17:43:38.243Z,78.30
2018-12-02T17:46:07.231Z,78.20
2018-12-02T17:48:35.030Z,78.30
2018-12-02T17:51:02.697Z,78.20
2018-12-02T17:53:30.426Z,78.10
2018-12-02T17:55:58.178Z,78.10
2018-12-02T17:58:25.908Z,78.20
2018-12-02T18:00:55.238Z,78.10
2018-12-02T18:03:30.088Z,78.20
2018-12-02T18:05:57.678Z,78.20
2018-12-02T18:08:25.350Z,78.10
2018-12-02T18:10:52.999Z,78.10
2018-12-02T18:13:20.594Z,78.20
2018-12-02T18:15:48.217Z,78.30
2018-12-02T18:18:21.556Z,78.30
2018-12-02T18:20:49.170Z,78.50
2018-12-02T18:23:16.811Z,78.70
2018-12-02T18:25:44.448Z,78.70
2018-12-02T18:28:12.207Z,78.90
2018-12-02T18:30:39.778Z,78.80
2018-12-02T18:33:07.482Z,78.70
2018-12-02T18:35:38.097Z,78.60
2018-12-02T18:38:08.706Z,78.70
2018-12-02T18:40:36.738Z,78.70
2018-12-02T18:43:04.917Z,78.70
2018-12-02T18:45:32.581Z,78.60
2018-12-02T18:48:00.317Z,78.50
2018-12-02T18:50:28.471Z,78.30
2018-12-02T18:52:56.850Z,78.40
2018-12-02T18:55:25.024Z,78.40
2018-12-02T18:57:53.436Z,78.30
2018-12-02T19:00:26.661Z,78.40
2018-12-02T19:02:55.305Z,78.40
2018-12-02T19:05:22.889Z,78.40
2018-12-02T19:07:51.607Z,78.30
2018-12-02T19:10:21.083Z,78.10
2018-12-02T19:12:48.750Z,78.00
2018-12-02T19:15:16.404Z,78.10
2018-12-02T19:17:44.173Z,78.10
2018-12-02T19:20:15.478Z,78.00
2018-12-02T19:22:43.148Z,78.10
2018-12-02T19:25:11.740Z,78.00
2018-12-02T19:27:39.277Z,78.20
2018-12-02T19:30:11.198Z,78.10
2018-12-02T19:32:39.738Z,78.20
2018-12-02T19:35:08.874Z,78.40
2018-12-02T19:37:36.627Z,78.20
2018-12-02T19:40:04.969Z,78.30
2018-12-02T19:42:32.552Z,78.40
2018-12-02T19:45:00.242Z,78.40
2018-12-02T19:47:27.866Z,78.40
2018-12-02T19:49:55.465Z,78.50
2018-12-02T19:52:23.078Z,79.20
2018-12-02T19:54:50.753Z,78.40
2018-12-02T19:57:18.463Z,78.40
2018-12-02T19:59:46.058Z,78.70
2018-12-02T20:02:13.829Z,78.50
2018-12-02T20:04:41.488Z,78.10
2018-12-02T20:07:10.076Z,77.90
2018-12-02T20:09:39.172Z,77.80
2018-12-02T20:12:07.664Z,77.80
2018-12-02T20:14:36.135Z,77.70
2018-12-02T20:17:04.726Z,77.70
2018-12-02T20:19:38.433Z,77.70
2018-12-02T20:22:06.152Z,77.70
2018-12-02T20:24:42.128Z,77.80
2018-12-02T20:27:13.290Z,77.80
2018-12-02T20:29:40.969Z,77.90
2018-12-02T20:32:09.357Z,78.00
2018-12-02T20:34:37.074Z,77.90
2018-12-02T20:37:04.735Z,77.90
2018-12-02T20:39:32.446Z,78.00
2018-12-02T20:42:00.045Z,78.10
2018-12-02T20:44:27.698Z,78.20
2018-12-02T20:46:55.463Z,78.20
2018-12-02T20:49:23.098Z,78.30
2018-12-02T20:51:50.799Z,78.20
2018-12-02T20:54:18.373Z,78.40
2018-12-02T20:56:45.967Z,78.40
2018-12-02T20:59:13.566Z,78.40
2018-12-02T21:01:41.186Z,78.40
2018-12-02T21:04:09.795Z,78.50
2018-12-02T21:06:37.500Z,78.50
2018-12-02T21:09:05.893Z,78.50
2018-12-02T21:11:33.544Z,78.40
2018-12-02T21:14:01.268Z,78.50
2018-12-02T21:16:28.949Z,78.60
2018-12-02T21:18:56.589Z,78.70
2018-12-02T21:21:24.189Z,78.70
2018-12-02T21:23:51.793Z,78.80
2018-12-02T21:26:19.550Z,78.70
2018-12-02T21:28:47.199Z,78.70
2018-12-02T21:31:14.833Z,78.70
2018-12-02T21:33:42.472Z,78.90
2018-12-02T21:36:10.098Z,78.90
2018-12-02T21:38:37.790Z,79.00
2018-12-02T21:41:08.948Z,79.00
2018-12-02T21:43:36.578Z,79.00
2018-12-02T21:46:04.487Z,79.80
2018-12-02T21:48:32.046Z,79.00
2018-12-02T21:50:59.760Z,79.10
2018-12-02T21:53:27.743Z,79.10
2018-12-02T21:55:56.348Z,79.00
2018-12-02T21:58:23.939Z,79.10
2018-12-02T22:00:57.029Z,79.10
2018-12-02T22:03:24.625Z,79.10
2018-12-02T22:05:52.210Z,79.00
2018-12-02T22:08:19.838Z,79.10
2018-12-02T22:10:47.551Z,79.10
2018-12-02T22:13:15.164Z,79.10
2018-12-02T22:15:42.790Z,79.20
2018-12-02T22:18:10.362Z,79.10
2018-12-02T22:20:37.979Z,79.20
2018-12-02T22:23:05.595Z,79.20
2018-12-02T22:25:33.313Z,79.20
2018-12-02T22:28:00.890Z,79.20
2018-12-02T22:30:28.466Z,79.30
2018-12-02T22:32:57.131Z,79.40
2018-12-02T22:35:24.701Z,79.30
2018-12-02T22:37:52.316Z,79.20
2018-12-02T22:40:20.378Z,79.30
2018-12-02T22:42:48.010Z,79.20
2018-12-02T22:45:16.330Z,79.20
2018-12-02T22:47:43.942Z,79.10
2018-12-02T22:50:13.113Z,79.20
2018-12-02T22:52:40.850Z,79.10
2018-12-02T22:55:09.089Z,79.10
2018-12-02T22:57:36.879Z,79.20
2018-12-02T23:00:08.957Z,79.10
2018-12-02T23:02:42.130Z,79.90
2018-12-02T23:05:09.737Z,79.00
2018-12-02T23:07:37.269Z,79.20
2018-12-02T23:10:04.854Z,79.20
2018-12-02T23:12:32.466Z,79.20
2018-12-02T23:15:00.027Z,79.20
2018-12-02T23:17:27.677Z,79.20
2018-12-02T23:19:55.239Z,79.10
2018-12-02T23:22:22.852Z,79.10
2018-12-02T23:24:50.402Z,79.10
2018-12-02T23:27:19.051Z,79.10
2018-12-02T23:29:46.638Z,79.40
2018-12-02T23:32:14.238Z,79.50
2018-12-02T23:34:41.845Z,79.40
2018-12-02T23:37:09.424Z,79.30
2018-12-02T23:39:36.973Z,79.40
2018-12-02T23:42:04.603Z,79.30
2018-12-02T23:44:32.225Z,79.30
2018-12-02T23:46:59.863Z,79.30
2018-12-02T23:49:27.408Z,79.30
2018-12-02T23:51:55.035Z,79.30
2018-12-02T23:54:22.713Z,79.40
2018-12-02T23:56:50.979Z,79.40
2018-12-02T23:59:18.631Z,79.30
